createdAt,value
2018-11-13T00:01:06.516Z,82.80
2018-11-13T00:03:34.083Z,83.00
2018-11-13T00:06:01.583Z,82.80
2018-11-13T00:08:29.159Z,82.90
2018-11-13T00:10:56.637Z,82.90
2018-11-13T00:13:24.204Z,82.60
2018-11-13T00:15:51.715Z,82.50
2018-11-13T00:18:19.195Z,82.50
2018-11-13T00:20:46.763Z,82.70
2018-11-13T00:23:14.334Z,82.70
2018-11-13T00:25:41.846Z,82.60
2018-11-13T00:28:09.395Z,82.80
2018-11-13T00:30:36.955Z,83.20
2018-11-13T00:33:05.001Z,83.50
2018-11-13T00:35:32.600Z,83.90
2018-11-13T00:38:00.078Z,84.00
2018-11-13T00:40:27.663Z,84.40
2018-11-13T00:42:55.136Z,84.40
2018-11-13T00:45:22.753Z,84.50
2018-11-13T00:47:50.187Z,84.70
2018-11-13T00:50:19.063Z,85.50
2018-11-13T00:52:47.025Z,85.70
2018-11-13T00:55:14.807Z,87.00
2018-11-13T00:57:42.390Z,88.40
2018-11-13T01:00:12.910Z,89.10
2018-11-13T01:02:40.639Z,89.20
2018-11-13T01:05:10.114Z,89.00
2018-11-13T01:07:37.650Z,88.90
2018-11-13T01:10:06.419Z,89.40
2018-11-13T01:12:33.978Z,89.70
2018-11-13T01:15:01.486Z,89.90
2018-11-13T01:17:29.061Z,90.10
2018-11-13T01:19:56.525Z,90.50
2018-11-13T01:22:24.105Z,90.70
2018-11-13T01:24:51.544Z,90.80
2018-11-13T01:27:19.121Z,90.90
2018-11-13T01:29:52.271Z,90.90
2018-11-13T01:32:19.801Z,91.00
2018-11-13T01:34:47.276Z,91.00
2018-11-13T01:37:14.852Z,91.10
2018-11-13T01:39:42.445Z,91.20
2018-11-13T01:42:09.926Z,91.40
2018-11-13T01:44:37.495Z,91.50
2018-11-13T01:47:05.283Z,91.70
2018-11-13T01:49:32.897Z,91.60
2018-11-13T01:52:00.309Z,91.60
2018-11-13T01:54:27.969Z,91.80
2018-11-13T01:56:55.417Z,92.00
2018-11-13T01:59:22.953Z,92.10
2018-11-13T02:01:50.409Z,92.30
2018-11-13T02:04:17.989Z,92.20
2018-11-13T02:06:45.449Z,92.40
2018-11-13T02:09:13.002Z,92.50
2018-11-13T02:11:40.472Z,92.70
2018-11-13T02:14:08.063Z,92.90
2018-11-13T02:16:35.535Z,93.10
2018-11-13T02:19:03.106Z,93.60
2018-11-13T02:21:30.857Z,93.90
2018-11-13T02:23:58.448Z,94.20
2018-11-13T02:26:25.944Z,94.40
2018-11-13T02:28:53.503Z,95.00
2018-11-13T02:31:21.046Z,95.40
2018-11-13T02:33:48.501Z,95.70
2018-11-13T02:36:16.185Z,96.30
2018-11-13T02:38:43.657Z,96.70
2018-11-13T02:41:11.204Z,96.90
2018-11-13T02:43:38.703Z,97.20
2018-11-13T02:46:06.262Z,97.00
2018-11-13T02:48:33.735Z,97.20
2018-11-13T02:51:01.463Z,96.80
2018-11-13T02:53:29.044Z,96.70
2018-11-13T02:55:56.569Z,96.60
2018-11-13T02:58:24.029Z,96.60
2018-11-13T03:00:51.622Z,96.80
2018-11-13T03:03:19.115Z,96.50
2018-11-13T03:05:46.673Z,96.50
2018-11-13T03:08:14.224Z,96.30
2018-11-13T03:10:41.774Z,96.30
2018-11-13T03:13:09.277Z,96.30
2018-11-13T03:15:36.847Z,96.30
2018-11-13T03:18:04.566Z,96.10
2018-11-13T03:20:32.017Z,96.10
2018-11-13T03:22:59.525Z,95.90
2018-11-13T03:25:27.082Z,95.70
2018-11-13T03:27:54.649Z,95.80
2018-11-13T03:30:24.136Z,95.90
2018-11-13T03:32:52.169Z,95.80
2018-11-13T03:35:19.669Z,95.50
2018-11-13T03:37:47.237Z,95.80
2018-11-13T03:40:15.113Z,95.60
2018-11-13T03:42:43.559Z,95.50
2018-11-13T03:45:11.751Z,95.70
2018-11-13T03:47:39.382Z,95.80
2018-11-13T03:50:09.033Z,95.80
2018-11-13T03:52:36.699Z,95.90
2018-11-13T03:55:05.289Z,95.90
2018-11-13T03:57:32.739Z,96.10
2018-11-13T04:00:00.259Z,96.10
2018-11-13T04:02:27.807Z,96.00
2018-11-13T04:04:55.349Z,95.90
2018-11-13T04:07:22.897Z,96.00
2018-11-13T04:09:50.398Z,96.10
2018-11-13T04:12:17.904Z,96.20
2018-11-13T04:14:45.457Z,96.00
2018-11-13T04:17:12.937Z,95.90
2018-11-13T04:19:40.498Z,96.10
2018-11-13T04:22:07.962Z,96.30
2018-11-13T04:24:35.502Z,96.10
2018-11-13T04:27:02.958Z,96.00
2018-11-13T04:29:31.120Z,95.90
2018-11-13T04:31:58.615Z,95.90
2018-11-13T04:34:26.171Z,96.00
2018-11-13T04:36:53.627Z,95.90
2018-11-13T04:39:21.217Z,95.80
2018-11-13T04:41:48.749Z,95.50
2018-11-13T04:44:16.197Z,95.30
2018-11-13T04:46:43.854Z,94.80
2018-11-13T04:49:11.353Z,94.80
2018-11-13T04:51:39.279Z,94.60
2018-11-13T04:54:06.704Z,94.60
2018-11-13T04:56:34.282Z,94.70
2018-11-13T04:59:02.442Z,94.60
2018-11-13T05:01:29.969Z,95.10
2018-11-13T05:03:57.425Z,95.20
2018-11-13T05:06:24.986Z,95.20
2018-11-13T05:08:52.424Z,95.40
2018-11-13T05:11:19.970Z,95.30
2018-11-13T05:13:47.497Z,95.80
2018-11-13T05:16:14.985Z,96.00
2018-11-13T05:18:42.527Z,96.30
2018-11-13T05:21:10.047Z,96.30
2018-11-13T05:23:37.518Z,96.50
2018-11-13T05:26:05.061Z,96.50
2018-11-13T05:28:32.531Z,96.40
2018-11-13T05:30:59.993Z,96.50
2018-11-13T05:33:27.521Z,96.70
2018-11-13T05:35:55.123Z,96.70
2018-11-13T05:38:22.683Z,96.60
2018-11-13T05:40:50.121Z,96.70
2018-11-13T05:43:17.667Z,96.70
2018-11-13T05:45:45.149Z,96.70
2018-11-13T05:48:12.715Z,96.50
2018-11-13T05:50:40.197Z,96.50
2018-11-13T05:53:07.902Z,96.70
2018-11-13T05:55:35.429Z,96.70
2018-11-13T05:58:02.966Z,96.50
2018-11-13T06:00:31.443Z,96.50
2018-11-13T06:02:59.505Z,96.90
2018-11-13T06:05:27.042Z,96.60
2018-11-13T06:07:54.499Z,96.60
2018-11-13T06:10:22.078Z,96.90
2018-11-13T06:12:49.590Z,96.60
2018-11-13T06:15:17.207Z,96.50
2018-11-13T06:17:44.690Z,96.80
2018-11-13T06:20:13.657Z,97.20
2018-11-13T06:22:41.298Z,97.80
2018-11-13T06:25:10.906Z,98.10
2018-11-13T06:27:38.898Z,98.50
2018-11-13T06:30:09.901Z,98.80
2018-11-13T06:32:37.386Z,99.00
2018-11-13T06:35:05.129Z,98.90
2018-11-13T06:37:32.603Z,99.00
2018-11-13T06:40:00.176Z,99.00
2018-11-13T06:42:27.645Z,99.40
2018-11-13T06:44:55.265Z,99.40
2018-11-13T06:47:22.877Z,99.40
2018-11-13T06:49:50.776Z,99.30
2018-11-13T06:52:18.266Z,99.50
2018-11-13T06:55:09.009Z,99.30
2018-11-13T06:57:36.574Z,99.60
2018-11-13T07:00:05.256Z,99.90
2018-11-13T07:02:32.709Z,99.80
2018-11-13T07:05:00.221Z,99.90
2018-11-13T07:07:27.765Z,99.90
2018-11-13T07:09:55.327Z,99.90
2018-11-13T07:12:22.877Z,99.90
2018-11-13T07:14:50.354Z,99.70
2018-11-13T07:17:18.084Z,99.50
2018-11-13T07:19:45.566Z,99.20
2018-11-13T07:22:13.142Z,98.70
2018-11-13T07:24:40.614Z,98.50
2018-11-13T07:27:08.157Z,98.30
2018-11-13T07:29:35.730Z,98.00
2018-11-13T07:32:03.382Z,97.70
2018-11-13T07:34:31.072Z,97.40
2018-11-13T07:36:58.449Z,97.30
2018-11-13T07:39:26.180Z,97.00
2018-11-13T07:41:54.142Z,96.90
2018-11-13T07:44:21.635Z,96.70
2018-11-13T07:46:49.574Z,96.60
2018-11-13T07:49:17.090Z,96.60
2018-11-13T07:51:44.607Z,96.40
2018-11-13T07:54:12.272Z,96.40
2018-11-13T07:56:39.738Z,96.40
2018-11-13T07:59:07.334Z,96.50
2018-11-13T08:01:34.830Z,96.70
2018-11-13T08:04:02.609Z,96.50
2018-11-13T08:06:30.159Z,96.60
2018-11-13T08:08:57.646Z,96.80
2018-11-13T08:11:25.186Z,96.40
2018-11-13T08:13:52.691Z,96.40
2018-11-13T08:16:20.269Z,96.40
2018-11-13T08:18:47.786Z,96.40
2018-11-13T08:21:15.331Z,96.40
2018-11-13T08:23:42.774Z,96.30
2018-11-13T08:26:10.362Z,96.30
2018-11-13T08:28:37.971Z,96.20
2018-11-13T08:31:06.337Z,96.10
2018-11-13T08:33:33.798Z,96.10
2018-11-13T08:36:01.483Z,96.20
2018-11-13T08:38:28.989Z,96.30
2018-11-13T08:40:56.449Z,96.20
2018-11-13T08:43:23.994Z,96.20
2018-11-13T08:45:51.544Z,95.90
2018-11-13T08:48:19.015Z,96.00
2018-11-13T08:50:46.553Z,95.80
2018-11-13T08:53:14.151Z,96.00
2018-11-13T08:55:41.606Z,96.60
2018-11-13T08:58:09.233Z,96.60
2018-11-13T09:00:36.640Z,97.10
2018-11-13T09:03:04.433Z,97.00
2018-11-13T09:05:31.919Z,97.30
2018-11-13T09:07:59.495Z,97.30
2018-11-13T09:10:26.978Z,97.90
2018-11-13T09:12:54.555Z,97.70
2018-11-13T09:15:22.217Z,98.00
2018-11-13T09:17:49.803Z,97.90
2018-11-13T09:20:18.478Z,97.80
2018-11-13T09:22:46.138Z,97.90
2018-11-13T09:25:14.942Z,97.70
2018-11-13T09:27:42.445Z,97.60
2018-11-13T09:30:12.138Z,97.60
2018-11-13T09:32:40.207Z,97.40
2018-11-13T09:35:08.510Z,97.60
2018-11-13T09:37:36.231Z,97.80
2018-11-13T09:40:04.776Z,97.60
2018-11-13T09:42:32.221Z,98.00
2018-11-13T09:44:59.868Z,97.80
2018-11-13T09:47:27.360Z,97.20
2018-11-13T09:49:54.910Z,97.60
2018-11-13T09:52:22.418Z,97.60
2018-11-13T09:54:50.076Z,97.80
2018-11-13T09:57:17.577Z,97.60
2018-11-13T09:59:45.249Z,97.30
2018-11-13T10:02:13.195Z,97.20
2018-11-13T10:04:40.805Z,97.10
2018-11-13T10:07:07.767Z,96.80
2018-11-13T10:09:35.326Z,97.00
2018-11-13T10:12:02.835Z,96.60
2018-11-13T10:14:30.418Z,96.60
2018-11-13T10:16:57.923Z,96.80
2018-11-13T10:22:58.806Z,96.30
2018-11-13T10:25:26.333Z,96.10
2018-11-13T10:27:53.905Z,95.70
2018-11-13T10:30:22.545Z,96.20
2018-11-13T10:32:50.887Z,95.40
2018-11-13T10:35:19.790Z,95.50
2018-11-13T10:37:47.442Z,95.50
2018-11-13T10:40:16.303Z,95.40
2018-11-13T10:42:43.887Z,96.10
2018-11-13T10:45:13.754Z,95.90
2018-11-13T10:47:41.570Z,95.80
2018-11-13T10:50:11.823Z,95.90
2018-11-13T10:52:40.747Z,95.90
2018-11-13T10:55:08.978Z,96.00
2018-11-13T10:57:37.710Z,96.00
2018-11-13T11:00:13.206Z,95.90
2018-11-13T11:02:46.461Z,95.80
2018-11-13T11:05:14.022Z,95.40
2018-11-13T11:07:41.514Z,95.60
2018-11-13T11:10:09.026Z,95.50
2018-11-13T11:12:36.615Z,95.60
2018-11-13T11:21:35.166Z,96.00
2018-11-13T11:24:02.739Z,95.80
2018-11-13T11:26:30.286Z,96.00
2018-11-13T11:28:57.827Z,96.30
2018-11-13T11:31:25.333Z,96.20
2018-11-13T11:33:52.896Z,96.00
2018-11-13T11:36:20.427Z,95.50
2018-11-13T11:38:48.115Z,96.00
2018-11-13T11:41:15.581Z,96.00
2018-11-13T11:43:43.160Z,96.10
2018-11-13T11:46:10.731Z,95.90
2018-11-13T11:48:38.263Z,95.20
2018-11-13T11:51:05.837Z,95.40
2018-11-13T11:53:33.381Z,94.90
2018-11-13T11:56:00.969Z,95.20
2018-11-13T11:58:28.518Z,95.30
2018-11-13T12:00:56.078Z,94.80
2018-11-13T12:03:23.566Z,95.10
2018-11-13T12:05:51.156Z,95.00
2018-11-13T12:08:18.659Z,95.10
2018-11-13T12:10:46.273Z,94.70
2018-11-13T12:13:13.792Z,94.40
2018-11-13T12:15:41.371Z,94.10
2018-11-13T12:18:08.978Z,93.60
2018-11-13T12:20:36.456Z,93.60
2018-11-13T12:23:04.237Z,93.80
2018-11-13T12:25:31.779Z,93.80
2018-11-13T12:27:59.342Z,93.80
2018-11-13T12:30:26.866Z,94.30
2018-11-13T12:32:54.430Z,94.60
2018-11-13T12:35:22.396Z,93.80
2018-11-13T12:37:49.929Z,93.90
2018-11-13T12:40:18.966Z,93.60
2018-11-13T12:42:47.295Z,93.90
2018-11-13T12:45:14.834Z,94.60
2018-11-13T12:47:43.029Z,94.20
2018-11-13T12:50:11.641Z,92.60
2018-11-13T12:52:39.310Z,92.70
2018-11-13T12:55:09.118Z,92.40
2018-11-13T12:57:36.716Z,92.90
2018-11-13T13:00:08.803Z,92.80
2018-11-13T13:02:36.311Z,91.90
2018-11-13T13:05:04.246Z,92.00
2018-11-13T13:07:31.759Z,91.70
2018-11-13T13:09:59.371Z,92.00
2018-11-13T13:12:26.912Z,91.40
2018-11-13T13:14:54.555Z,91.30
2018-11-13T13:17:22.014Z,91.50
2018-11-13T13:19:49.601Z,91.70
2018-11-13T13:22:17.157Z,91.90
2018-11-13T13:24:44.766Z,91.90
2018-11-13T13:27:12.394Z,91.70
2018-11-13T13:29:39.919Z,91.40
2018-11-13T13:32:07.586Z,91.30
2018-11-13T13:34:35.087Z,91.20
2018-11-13T13:37:02.754Z,91.10
2018-11-13T13:39:30.206Z,90.70
2018-11-13T13:41:57.768Z,91.00
2018-11-13T13:44:25.281Z,90.60
2018-11-13T13:46:52.862Z,89.60
2018-11-13T13:49:20.378Z,89.30
2018-11-13T13:51:47.979Z,87.40
2018-11-13T13:54:16.673Z,88.30
2018-11-13T13:56:44.414Z,87.50
2018-11-13T13:59:12.062Z,89.00
2018-11-13T14:01:40.004Z,87.90
2018-11-13T14:04:07.511Z,86.70
2018-11-13T14:06:35.106Z,86.10
2018-11-13T14:09:05.746Z,87.80
2018-11-13T14:11:33.214Z,86.70
2018-11-13T14:14:02.749Z,87.00
2018-11-13T14:16:30.295Z,86.40
2018-11-13T14:18:57.835Z,85.50
2018-11-13T14:21:25.289Z,85.20
2018-11-13T14:23:53.879Z,84.70
2018-11-13T14:26:21.384Z,84.30
2018-11-13T14:28:49.006Z,83.00
2018-11-13T14:31:16.468Z,83.50
2018-11-13T14:33:44.007Z,84.30
2018-11-13T14:36:11.508Z,83.40
2018-11-13T14:38:48.842Z,85.20
2018-11-13T14:41:17.838Z,84.80
2018-11-13T14:43:45.711Z,84.50
2018-11-13T14:46:13.236Z,83.30
2018-11-13T14:48:40.863Z,83.00
2018-11-13T14:51:08.389Z,82.50
2018-11-13T14:53:36.809Z,83.00
2018-11-13T14:56:04.834Z,82.80
2018-11-13T14:58:32.441Z,83.60
2018-11-13T15:01:00.106Z,82.60
2018-11-13T15:03:27.627Z,82.60
2018-11-13T15:05:55.250Z,82.50
2018-11-13T15:08:22.886Z,81.70
2018-11-13T15:10:52.446Z,81.70
2018-11-13T15:13:21.087Z,82.40
2018-11-13T15:15:48.667Z,82.70
2018-11-13T15:18:16.264Z,83.40
2018-11-13T15:20:44.403Z,82.80
2018-11-13T15:23:12.597Z,82.80
2018-11-13T15:25:40.238Z,81.70
2018-11-13T15:28:08.426Z,82.30
2018-11-13T15:30:37.597Z,82.30
2018-11-13T15:33:07.141Z,82.90
2018-11-13T15:35:36.471Z,82.60
2018-11-13T15:38:04.401Z,82.30
2018-11-13T15:40:32.692Z,82.80
2018-11-13T15:43:00.166Z,82.30
2018-11-13T15:45:27.783Z,83.40
2018-11-13T15:47:56.380Z,82.60
2018-11-13T15:50:27.712Z,83.30
2018-11-13T15:52:57.780Z,83.30
2018-11-13T15:55:25.416Z,83.20
2018-11-13T15:57:53.119Z,83.00
2018-11-13T16:00:24.066Z,82.70
2018-11-13T16:02:51.827Z,82.50
2018-11-13T16:05:27.195Z,82.50
2018-11-13T16:07:55.999Z,82.50
2018-11-13T16:10:23.698Z,82.30
2018-11-13T16:12:51.323Z,82.10
2018-11-13T16:15:20.118Z,82.20
2018-11-13T16:17:49.399Z,82.10
2018-11-13T16:20:17.279Z,82.00
2018-11-13T16:22:44.925Z,81.90
2018-11-13T16:25:12.446Z,82.00
2018-11-13T16:27:40.399Z,82.10
2018-11-13T16:30:10.385Z,82.30
2018-11-13T16:32:37.938Z,82.30
2018-11-13T16:35:07.289Z,82.50
2018-11-13T16:37:34.909Z,82.60
2018-11-13T16:40:02.649Z,82.90
2018-11-13T16:42:30.614Z,83.70
2018-11-13T16:44:58.176Z,84.10
2018-11-13T16:47:25.670Z,84.20
2018-11-13T16:49:53.180Z,84.20
2018-11-13T16:52:20.790Z,84.30
2018-11-13T16:54:51.535Z,84.40
2018-11-13T16:57:19.726Z,84.30
2018-11-13T16:59:47.601Z,84.80
2018-11-13T17:02:15.205Z,85.20
2018-11-13T17:04:43.142Z,85.40
2018-11-13T17:07:10.776Z,85.70
2018-11-13T17:09:38.288Z,86.50
2018-11-13T17:12:05.890Z,86.20
2018-11-13T17:14:33.661Z,86.40
2018-11-13T17:17:01.495Z,86.60
2018-11-13T17:19:29.288Z,86.80
2018-11-13T17:21:56.845Z,86.90
2018-11-13T17:24:24.534Z,86.50
2018-11-13T17:26:52.029Z,86.80
2018-11-13T17:29:19.703Z,86.70
2018-11-13T17:31:47.177Z,86.60
2018-11-13T17:34:14.781Z,86.20
2018-11-13T17:36:42.298Z,85.80
2018-11-13T17:39:11.866Z,85.70
2018-11-13T17:41:39.396Z,85.80
2018-11-13T17:44:07.097Z,85.70
2018-11-13T17:46:34.578Z,85.70
2018-11-13T17:49:02.380Z,85.80
2018-11-13T17:51:29.890Z,85.70
2018-11-13T17:53:57.501Z,85.70
2018-11-13T17:56:25.130Z,85.90
2018-11-13T17:58:52.622Z,86.00
2018-11-13T18:01:20.286Z,86.00
2018-11-13T18:03:47.825Z,85.90
2018-11-13T18:06:15.499Z,86.10
2018-11-13T18:08:43.099Z,86.00
2018-11-13T18:11:10.710Z,86.80
2018-11-13T18:13:38.262Z,87.30
2018-11-13T18:16:06.145Z,87.80
2018-11-13T18:18:33.700Z,88.10
2018-11-13T18:21:01.518Z,88.30
2018-11-13T18:23:29.217Z,88.80
2018-11-13T18:25:56.792Z,89.10
2018-11-13T18:28:24.632Z,89.40
2018-11-13T18:30:52.185Z,89.00
2018-11-13T18:33:19.792Z,89.10
2018-11-13T18:35:47.354Z,88.90
2018-11-13T18:38:15.742Z,88.80
2018-11-13T18:40:43.417Z,89.20
2018-11-13T18:43:11.399Z,89.20
2018-11-13T18:45:40.114Z,89.70
2018-11-13T18:48:07.999Z,90.20
2018-11-13T18:50:37.070Z,90.30
2018-11-13T18:53:05.023Z,90.30
2018-11-13T18:55:33.549Z,90.10
2018-11-13T18:58:01.655Z,90.10
2018-11-13T19:00:31.544Z,90.10
2018-11-13T19:02:59.862Z,90.10
2018-11-13T19:05:27.726Z,90.10
2018-11-13T19:07:55.757Z,89.90
2018-11-13T19:10:30.879Z,90.10
2018-11-13T19:12:59.946Z,89.20
2018-11-13T19:15:28.514Z,88.90
2018-11-13T19:17:56.216Z,88.70
2018-11-13T19:20:24.948Z,88.40
2018-11-13T19:22:52.442Z,88.40
2018-11-13T19:25:22.458Z,88.20
2018-11-13T19:27:50.394Z,88.40
2018-11-13T19:30:18.843Z,88.10
2018-11-13T19:32:46.318Z,87.70
2018-11-13T19:35:14.340Z,87.50
2018-11-13T19:37:41.927Z,87.50
2018-11-13T19:40:22.637Z,87.90
2018-11-13T19:42:58.849Z,88.60
2018-11-13T19:45:33.699Z,89.30
2018-11-13T19:48:04.094Z,89.80
2018-11-13T19:50:33.139Z,89.70
2018-11-13T19:53:00.876Z,89.80
2018-11-13T19:55:29.224Z,89.80
2018-11-13T19:57:56.959Z,90.00
2018-11-13T20:00:27.622Z,90.30
2018-11-13T20:02:56.375Z,90.60
2018-11-13T20:05:24.555Z,90.60
2018-11-13T20:07:52.168Z,91.30
2018-11-13T20:10:21.103Z,91.70
2018-11-13T20:12:49.548Z,91.70
2018-11-13T20:15:18.275Z,92.20
2018-11-13T20:17:46.129Z,92.00
2018-11-13T20:20:15.910Z,91.90
2018-11-13T20:22:44.034Z,91.90
2018-11-13T20:25:21.133Z,92.20
2018-11-13T20:27:48.822Z,92.40
2018-11-13T20:30:20.991Z,92.40
2018-11-13T20:32:48.652Z,92.60
2018-11-13T20:35:16.208Z,92.80
2018-11-13T20:37:45.113Z,93.00
2018-11-13T20:40:16.119Z,93.20
2018-11-13T20:42:44.768Z,93.70
2018-11-13T20:45:12.352Z,93.80
2018-11-13T20:47:39.950Z,93.90
2018-11-13T20:50:10.429Z,94.00
2018-11-13T20:52:38.103Z,94.20
2018-11-13T20:55:06.047Z,94.10
2018-11-13T20:57:33.633Z,94.30
2018-11-13T21:00:01.557Z,93.90
2018-11-13T21:02:29.425Z,94.00
2018-11-13T21:04:56.802Z,94.50
2018-11-13T21:07:24.321Z,94.50
2018-11-13T21:09:52.407Z,94.10
2018-11-13T21:12:19.579Z,94.60
2018-11-13T21:14:47.231Z,94.30
2018-11-13T21:17:15.037Z,94.00
2018-11-13T21:19:42.499Z,93.80
2018-11-13T21:22:10.111Z,93.70
2018-11-13T21:24:37.769Z,93.50
2018-11-13T21:27:05.370Z,93.80
2018-11-13T21:29:33.034Z,93.40
2018-11-13T21:32:00.951Z,93.40
2018-11-13T21:34:28.743Z,92.50
2018-11-13T21:36:56.533Z,92.10
2018-11-13T21:39:24.083Z,91.80
2018-11-13T21:41:51.742Z,91.40
2018-11-13T21:44:19.329Z,91.00
2018-11-13T21:46:46.960Z,90.60
2018-11-13T21:49:14.482Z,90.30
2018-11-13T21:51:42.149Z,90.20
2018-11-13T21:54:09.806Z,90.00
2018-11-13T21:56:37.430Z,90.00
2018-11-13T21:59:04.990Z,90.10
2018-11-13T22:01:32.624Z,90.10
2018-11-13T22:04:00.106Z,89.90
2018-11-13T22:06:27.656Z,89.40
2018-11-13T22:08:55.278Z,89.30
2018-11-13T22:11:22.974Z,90.20
2018-11-13T22:13:50.458Z,90.30
2018-11-13T22:16:18.014Z,90.20
2018-11-13T22:18:45.661Z,90.10
2018-11-13T22:21:13.244Z,90.00
2018-11-13T22:23:40.772Z,90.00
2018-11-13T22:26:08.252Z,90.40
2018-11-13T22:28:35.952Z,90.20
2018-11-13T22:31:03.403Z,90.20
2018-11-13T22:33:30.974Z,90.20
2018-11-13T22:35:58.571Z,90.10
2018-11-13T22:38:26.126Z,90.20
2018-11-13T22:40:53.673Z,90.20
2018-11-13T22:43:21.223Z,90.30
2018-11-13T22:45:48.854Z,90.30
2018-11-13T22:48:16.325Z,90.30
2018-11-13T22:50:43.886Z,90.30
2018-11-13T22:53:11.507Z,90.10
2018-11-13T22:55:39.155Z,90.00
2018-11-13T22:58:06.714Z,90.00
2018-11-13T23:00:38.821Z,90.10
2018-11-13T23:03:07.313Z,90.30
2018-11-13T23:05:34.844Z,90.30
2018-11-13T23:08:02.479Z,90.20
2018-11-13T23:10:30.132Z,90.20
2018-11-13T23:12:57.682Z,90.10
2018-11-13T23:15:25.154Z,90.50
2018-11-13T23:17:52.720Z,90.40
2018-11-13T23:20:20.789Z,90.60
2018-11-13T23:22:48.358Z,90.40
2018-11-13T23:25:17.005Z,90.60
2018-11-13T23:27:45.428Z,90.60
2018-11-13T23:30:15.308Z,90.30
2018-11-13T23:32:43.138Z,90.60
2018-11-13T23:35:11.330Z,90.60
2018-11-13T23:37:39.035Z,90.60
2018-11-13T23:40:08.609Z,90.60
2018-11-13T23:42:36.230Z,90.50
2018-11-13T23:45:03.848Z,90.60
2018-11-13T23:47:31.414Z,90.50
2018-11-13T23:49:59.030Z,90.40
2018-11-13T23:52:26.501Z,90.40
2018-11-13T23:54:54.130Z,90.30
2018-11-13T23:57:21.694Z,90.30
2018-11-13T23:59:49.178Z,90.20
